createdAt,value
2018-02-21T00:01:23.705Z,32.70
2018-02-21T00:03:51.493Z,34.27
2018-02-21T00:06:19.402Z,30.70
2018-02-21T00:08:47.262Z,36.30
2018-02-21T00:11:15.077Z,33.10
2018-02-21T00:13:42.890Z,34.33
2018-02-21T00:16:10.653Z,34.87
2018-02-21T00:18:38.416Z,34.43
2018-02-21T00:21:06.196Z,33.80
2018-02-21T00:23:33.952Z,31.50
2018-02-21T00:26:01.734Z,29.33
2018-02-21T00:28:29.493Z,32.93
2018-02-21T00:30:57.291Z,32.80
2018-02-21T00:33:25.868Z,31.83
2018-02-21T00:35:53.740Z,33.70
2018-02-21T00:38:22.270Z,32.10
2018-02-21T00:40:50.093Z,34.77
2018-02-21T00:43:17.915Z,29.90
2018-02-21T00:45:45.736Z,35.17
2018-02-21T00:48:19.979Z,31.83
2018-02-21T00:50:47.799Z,34.67
2018-02-21T00:53:15.686Z,32.20
2018-02-21T00:55:43.571Z,32.47
2018-02-21T00:58:11.367Z,33.37
2018-02-21T01:00:39.306Z,35.83
2018-02-21T01:03:07.415Z,33.77
2018-02-21T01:05:35.203Z,29.70
2018-02-21T01:08:02.941Z,35.93
2018-02-21T01:10:30.849Z,32.30
2018-02-21T01:12:58.837Z,32.10
2018-02-21T01:15:26.647Z,31.30
2018-02-21T01:17:54.414Z,29.77
2018-02-21T01:20:22.293Z,32.47
2018-02-21T01:22:50.115Z,30.73
2018-02-21T01:25:17.919Z,33.87
2018-02-21T01:27:45.704Z,33.20
2018-02-21T01:30:13.460Z,32.00
2018-02-21T01:32:41.233Z,31.27
2018-02-21T01:35:08.968Z,36.07
2018-02-21T01:37:36.748Z,30.23
2018-02-21T01:40:04.578Z,28.37
2018-02-21T01:42:33.084Z,31.20
2018-02-21T01:45:00.909Z,31.50
2018-02-21T01:47:28.689Z,29.00
2018-02-21T01:49:56.502Z,30.40
2018-02-21T01:52:24.252Z,29.60
2018-02-21T01:54:52.088Z,30.70
2018-02-21T01:57:19.905Z,31.87
2018-02-21T01:59:47.711Z,32.03
2018-02-21T02:02:15.523Z,31.97
2018-02-21T02:04:43.341Z,32.47
2018-02-21T02:07:11.112Z,27.63
2018-02-21T02:09:38.918Z,26.53
2018-02-21T02:12:06.675Z,28.47
2018-02-21T02:14:34.456Z,26.50
2018-02-21T02:17:02.228Z,29.87
2018-02-21T02:19:30.029Z,26.40
2018-02-21T02:21:57.814Z,28.63
2018-02-21T02:24:25.634Z,25.03
2018-02-21T02:26:53.388Z,25.60
2018-02-21T02:29:21.914Z,28.90
2018-02-21T02:31:49.680Z,24.57
2018-02-21T02:34:17.508Z,27.67
2018-02-21T02:36:45.309Z,24.17
2018-02-21T02:39:25.776Z,24.60
2018-02-21T02:41:53.535Z,25.60
2018-02-21T02:44:21.330Z,25.03
2018-02-21T02:46:49.143Z,25.07
2018-02-21T02:49:16.913Z,30.37
2018-02-21T02:51:44.691Z,25.10
2018-02-21T02:54:12.425Z,24.83
2018-02-21T02:56:40.208Z,23.67
2018-02-21T02:59:08.018Z,25.67
2018-02-21T03:01:35.876Z,25.70
2018-02-21T03:04:03.693Z,24.57
2018-02-21T03:06:32.278Z,21.47
2018-02-21T03:09:00.104Z,22.80
2018-02-21T03:11:27.880Z,23.93
2018-02-21T03:13:55.647Z,25.50
2018-02-21T03:16:23.388Z,29.60
2018-02-21T03:18:51.353Z,26.20
2018-02-21T03:21:19.232Z,26.23
2018-02-21T03:23:46.981Z,21.70
2018-02-21T03:26:14.810Z,20.17
2018-02-21T03:28:42.627Z,21.90
2018-02-21T03:31:10.473Z,21.50
2018-02-21T03:33:38.282Z,20.87
2018-02-21T03:36:06.107Z,24.07
2018-02-21T03:38:33.926Z,29.80
2018-02-21T03:41:01.757Z,23.50
2018-02-21T03:43:29.490Z,22.73
2018-02-21T03:45:57.283Z,23.50
2018-02-21T03:48:25.021Z,21.90
2018-02-21T03:50:52.845Z,19.33
2018-02-21T03:53:20.598Z,23.90
2018-02-21T03:55:48.420Z,22.13
2018-02-21T03:58:16.170Z,22.53
2018-02-21T04:00:43.990Z,27.10
2018-02-21T04:03:11.851Z,23.90
2018-02-21T04:05:39.693Z,24.20
2018-02-21T04:08:07.553Z,25.23
2018-02-21T04:10:35.309Z,21.07
2018-02-21T04:13:03.116Z,21.40
2018-02-21T04:15:30.911Z,28.87
2018-02-21T04:17:58.663Z,22.00
2018-02-21T04:20:26.479Z,19.57
2018-02-21T04:22:54.231Z,22.80
2018-02-21T04:25:22.018Z,18.80
2018-02-21T04:27:49.835Z,21.13
2018-02-21T04:30:17.586Z,20.90
2018-02-21T04:32:45.347Z,20.73
2018-02-21T04:35:13.165Z,20.53
2018-02-21T04:37:40.948Z,23.57
2018-02-21T04:40:08.811Z,21.20
2018-02-21T04:42:36.627Z,20.07
2018-02-21T04:45:04.430Z,20.33
2018-02-21T04:47:32.253Z,25.03
2018-02-21T04:50:00.034Z,19.83
2018-02-21T04:52:27.872Z,23.70
2018-02-21T05:08:15.800Z,21.20
2018-02-21T05:10:43.640Z,22.80
2018-02-21T05:13:11.482Z,25.77
2018-02-21T05:15:39.386Z,18.90
2018-02-21T05:18:07.260Z,22.60
2018-02-21T05:20:35.136Z,24.30
2018-02-21T05:23:03.008Z,17.97
2018-02-21T05:25:31.860Z,19.60
2018-02-21T05:27:59.762Z,23.60
2018-02-21T05:30:27.667Z,22.53
2018-02-21T05:32:56.231Z,24.50
2018-02-21T05:35:24.072Z,23.93
2018-02-21T05:37:51.884Z,18.63
2018-02-21T05:40:20.476Z,22.33
2018-02-21T05:42:49.006Z,27.60
2018-02-21T05:45:16.808Z,21.93
2018-02-21T05:47:44.561Z,26.20
2018-02-21T05:50:12.297Z,25.97
2018-02-21T05:52:40.104Z,22.43
2018-02-21T05:55:07.894Z,21.30
2018-02-21T05:57:36.278Z,20.87
2018-02-21T06:00:05.086Z,22.37
2018-02-21T06:02:32.891Z,24.83
2018-02-21T06:05:00.691Z,20.47
2018-02-21T06:07:28.529Z,25.40
2018-02-21T06:09:56.377Z,21.93
2018-02-21T06:12:24.176Z,23.00
2018-02-21T06:14:51.994Z,22.57
2018-02-21T06:17:19.906Z,31.90
2018-02-21T06:20:01.785Z,24.17
2018-02-21T06:22:29.632Z,24.47
2018-02-21T06:24:57.595Z,25.10
2018-02-21T06:27:25.454Z,24.33
2018-02-21T06:29:53.479Z,26.83
2018-02-21T06:32:21.321Z,28.17
2018-02-21T06:34:49.152Z,31.10
2018-02-21T06:37:16.994Z,25.33
2018-02-21T06:39:44.899Z,24.23
2018-02-21T06:42:12.929Z,27.60
2018-02-21T06:44:40.832Z,26.83
2018-02-21T06:47:08.635Z,24.93
2018-02-21T06:49:36.413Z,22.60
2018-02-21T06:52:04.237Z,24.47
2018-02-21T06:54:32.915Z,23.13
2018-02-21T06:57:00.701Z,26.77
2018-02-21T06:59:29.304Z,26.97
2018-02-21T07:01:57.827Z,25.63
2018-02-21T07:04:25.589Z,26.23
2018-02-21T07:06:53.535Z,24.53
2018-02-21T07:09:22.055Z,22.63
2018-02-21T07:11:49.940Z,24.33
2018-02-21T07:14:17.720Z,23.40
2018-02-21T07:16:45.577Z,25.50
2018-02-21T07:19:13.364Z,22.70
2018-02-21T07:21:41.967Z,23.13
2018-02-21T07:24:09.756Z,27.80
2018-02-21T07:26:37.520Z,28.73
2018-02-21T07:29:05.358Z,23.27
2018-02-21T07:31:33.441Z,21.73
2018-02-21T07:34:01.295Z,24.33
2018-02-21T07:36:29.102Z,24.40
2018-02-21T07:38:56.952Z,26.30
2018-02-21T07:41:24.758Z,21.00
2018-02-21T07:43:52.609Z,25.60
2018-02-21T07:46:20.374Z,24.20
2018-02-21T07:48:48.147Z,25.03
2018-02-21T07:51:15.929Z,23.80
2018-02-21T07:53:43.784Z,25.40
2018-02-21T07:56:12.281Z,24.63
2018-02-21T07:58:40.163Z,24.70
2018-02-21T08:01:07.963Z,24.33
2018-02-21T08:03:36.597Z,22.20
2018-02-21T08:06:05.134Z,24.83
2018-02-21T08:08:32.900Z,24.23
2018-02-21T08:11:00.703Z,21.33
2018-02-21T08:13:29.280Z,24.80
2018-02-21T08:15:57.084Z,28.43
2018-02-21T08:18:25.813Z,24.57
2018-02-21T08:20:53.643Z,23.80
2018-02-21T08:23:21.459Z,22.07
2018-02-21T08:25:49.972Z,25.03
2018-02-21T08:28:17.787Z,35.67
2018-02-21T08:30:45.617Z,27.53
2018-02-21T08:33:13.448Z,30.53
2018-02-21T08:35:41.294Z,28.03
2018-02-21T08:38:09.074Z,36.33
2018-02-21T08:40:36.905Z,22.80
2018-02-21T08:43:17.361Z,22.20
2018-02-21T08:45:45.197Z,25.33
2018-02-21T08:48:12.972Z,26.13
2018-02-21T08:50:40.781Z,24.33
2018-02-21T08:53:08.602Z,27.63
2018-02-21T08:55:36.451Z,25.93
2018-02-21T08:58:04.344Z,29.80
2018-02-21T09:00:32.165Z,22.57
2018-02-21T09:02:59.952Z,28.47
2018-02-21T09:05:27.722Z,29.20
2018-02-21T09:07:55.479Z,26.50
2018-02-21T09:10:23.321Z,25.40
2018-02-21T09:12:51.147Z,25.33
2018-02-21T09:15:18.982Z,33.53
2018-02-21T09:17:47.589Z,23.13
2018-02-21T09:20:16.159Z,28.27
2018-02-21T09:22:44.006Z,30.13
2018-02-21T09:25:11.888Z,24.77
2018-02-21T09:27:40.539Z,25.73
2018-02-21T09:30:08.408Z,27.27
2018-02-21T09:32:36.189Z,24.77
2018-02-21T09:35:04.032Z,25.00
2018-02-21T09:37:31.854Z,32.00
2018-02-21T09:39:59.651Z,25.83
2018-02-21T09:42:27.435Z,26.13
2018-02-21T09:44:55.327Z,29.70
2018-02-21T09:47:23.147Z,26.23
2018-02-21T09:49:51.007Z,25.87
2018-02-21T09:52:18.786Z,28.47
2018-02-21T09:54:47.333Z,27.70
2018-02-21T09:57:15.100Z,27.90
2018-02-21T09:59:44.982Z,26.50
2018-02-21T10:02:18.511Z,24.67
2018-02-21T10:04:46.336Z,29.07
2018-02-21T10:07:14.190Z,29.07
2018-02-21T10:09:42.091Z,26.43
2018-02-21T10:12:09.862Z,32.03
2018-02-21T10:14:37.698Z,25.20
2018-02-21T10:17:05.527Z,32.47
2018-02-21T10:19:33.310Z,27.90
2018-02-21T10:22:01.131Z,26.40
2018-02-21T10:24:28.919Z,57.77
2018-02-21T10:26:56.674Z,28.50
2018-02-21T10:29:24.537Z,39.93
2018-02-21T10:31:52.335Z,27.73
2018-02-21T10:34:20.879Z,35.43
2018-02-21T10:36:48.648Z,47.20
2018-02-21T10:39:16.441Z,69.97
2018-02-21T10:41:44.203Z,39.53
2018-02-21T10:44:11.998Z,30.37
2018-02-21T10:46:39.791Z,23.83
2018-02-21T10:49:07.550Z,24.20
2018-02-21T10:51:35.305Z,23.87
2018-02-21T10:54:03.109Z,22.33
2018-02-21T10:56:30.958Z,23.20
2018-02-21T10:58:58.773Z,21.77
2018-02-21T11:01:26.625Z,23.17
2018-02-21T11:03:54.387Z,18.30
2018-02-21T11:06:22.241Z,21.93
2018-02-21T11:08:51.042Z,20.20
2018-02-21T11:11:18.839Z,21.97
2018-02-21T11:13:46.641Z,23.10
2018-02-21T11:16:14.427Z,20.23
2018-02-21T11:18:42.200Z,29.33
2018-02-21T11:21:09.974Z,22.70
2018-02-21T11:23:37.818Z,26.60
2018-02-21T11:26:10.800Z,29.00
2018-02-21T11:28:38.664Z,23.60
2018-02-21T11:31:07.202Z,26.07
2018-02-21T11:33:35.006Z,25.03
2018-02-21T11:36:02.809Z,26.87
2018-02-21T11:38:30.624Z,26.50
2018-02-21T11:40:59.843Z,25.97
2018-02-21T11:43:27.631Z,22.77
2018-02-21T11:45:55.471Z,22.30
2018-02-21T11:48:24.041Z,22.43
2018-02-21T11:50:51.896Z,23.37
2018-02-21T11:53:19.785Z,20.97
2018-02-21T11:55:47.682Z,27.23
2018-02-21T11:58:15.531Z,24.23
2018-02-21T12:00:44.274Z,24.30
2018-02-21T12:03:12.275Z,25.10
2018-02-21T12:05:41.248Z,25.47
2018-02-21T12:08:09.187Z,26.90
2018-02-21T12:10:37.039Z,21.97
2018-02-21T12:13:04.953Z,28.37
2018-02-21T12:15:32.791Z,25.70
2018-02-21T12:20:38.550Z,25.77
2018-02-21T12:23:06.408Z,19.60
2018-02-21T12:25:34.987Z,18.87
2018-02-21T12:28:02.788Z,19.43
2018-02-21T12:30:30.545Z,14.50
2018-02-21T12:33:00.394Z,15.40
2018-02-21T12:35:28.357Z,15.03
2018-02-21T12:37:56.146Z,12.03
2018-02-21T12:40:29.524Z,11.07
2018-02-21T12:42:57.242Z,13.43
2018-02-21T12:45:25.025Z,12.00
2018-02-21T12:47:52.811Z,13.87
2018-02-21T12:50:20.623Z,14.33
2018-02-21T12:52:48.425Z,13.00
2018-02-21T12:55:16.219Z,11.37
2018-02-21T12:57:44.008Z,12.10
2018-02-21T13:00:11.811Z,11.50
2018-02-21T13:02:41.056Z,11.17
2018-02-21T13:05:09.520Z,9.77
2018-02-21T13:10:14.036Z,8.67
2018-02-21T13:12:41.796Z,17.33
2018-02-21T13:15:09.655Z,11.73
2018-02-21T13:17:37.494Z,10.10
2018-02-21T13:20:06.026Z,15.33
2018-02-21T13:22:34.026Z,9.37
2018-02-21T13:25:01.882Z,9.90
2018-02-21T13:27:29.865Z,10.57
2018-02-21T13:29:58.994Z,12.90
2018-02-21T13:32:26.923Z,8.27
2018-02-21T15:02:51.773Z,7.40
2018-02-21T15:05:19.642Z,8.73
2018-02-21T15:07:48.445Z,7.83
2018-02-21T15:10:16.237Z,7.50
2018-02-21T15:12:44.196Z,10.27
2018-02-21T15:15:12.767Z,7.20
2018-02-21T15:17:40.546Z,8.30
2018-02-21T15:20:08.402Z,7.60
2018-02-21T15:22:36.248Z,10.17
2018-02-21T15:25:04.000Z,8.00
2018-02-21T15:27:31.799Z,7.77
2018-02-21T15:29:59.573Z,15.23
2018-02-21T15:32:28.487Z,6.33
2018-02-21T15:34:56.379Z,10.17
2018-02-21T15:37:24.181Z,10.30
2018-02-21T15:39:52.000Z,9.17
2018-02-21T15:42:19.806Z,11.93
2018-02-21T15:44:47.643Z,8.83
2018-02-21T15:47:15.431Z,11.93
2018-02-21T15:49:46.156Z,8.87
2018-02-21T15:52:14.712Z,11.73
2018-02-21T15:54:42.452Z,14.00
2018-02-21T15:57:11.185Z,9.97
2018-02-21T15:59:38.957Z,11.67
2018-02-21T16:02:06.687Z,9.33
2018-02-21T16:04:34.521Z,9.40
2018-02-21T16:07:02.666Z,7.90
2018-02-21T16:09:31.427Z,6.97
2018-02-21T16:11:59.923Z,7.17
2018-02-21T16:14:28.483Z,9.33
2018-02-21T16:16:57.067Z,12.13
2018-02-21T16:19:24.877Z,9.87
2018-02-21T16:21:52.599Z,7.40
2018-02-21T16:24:20.336Z,8.87
2018-02-21T16:26:48.075Z,9.90
2018-02-21T16:29:15.891Z,6.87
2018-02-21T16:31:43.624Z,6.33
2018-02-21T16:34:11.394Z,9.17
2018-02-21T16:36:39.147Z,9.53
2018-02-21T16:39:07.767Z,9.27
2018-02-21T16:41:35.558Z,9.40
2018-02-21T16:44:03.296Z,15.13
2018-02-21T16:46:31.139Z,11.20
2018-02-21T16:48:58.919Z,13.10
2018-02-21T16:51:26.791Z,9.50
2018-02-21T16:54:00.202Z,11.03
2018-02-21T16:56:27.977Z,12.00
2018-02-21T16:58:55.763Z,9.37
2018-02-21T17:01:23.511Z,9.93
2018-02-21T17:04:17.221Z,7.93
2018-02-21T17:06:46.145Z,10.73
2018-02-21T17:09:19.248Z,10.97
2018-02-21T17:11:47.051Z,10.60
2018-02-21T17:14:15.632Z,12.30
2018-02-21T17:16:43.844Z,11.33
2018-02-21T17:19:12.115Z,10.20
2018-02-21T17:21:39.960Z,14.20
2018-02-21T17:24:09.053Z,9.90
2018-02-21T17:26:37.433Z,15.10
2018-02-21T17:29:06.082Z,11.37
2018-02-21T17:31:33.943Z,10.30
2018-02-21T17:34:02.515Z,13.03
2018-02-21T17:36:30.491Z,11.90
2018-02-21T17:39:00.048Z,11.90
2018-02-21T17:41:34.647Z,12.93
2018-02-21T17:44:03.736Z,12.57
2018-02-21T17:46:31.594Z,11.63
2018-02-21T17:49:04.919Z,11.63
2018-02-21T17:51:35.165Z,12.13
2018-02-21T17:54:04.099Z,12.23
2018-02-21T17:56:34.934Z,10.50
2018-02-21T17:59:07.163Z,15.20
2018-02-21T18:01:35.029Z,13.00
2018-02-21T18:04:02.895Z,11.93
2018-02-21T18:06:31.533Z,9.93
2018-02-21T18:08:59.350Z,11.90
2018-02-21T18:14:36.073Z,17.80
2018-02-21T18:17:04.001Z,7.57
2018-02-21T18:19:32.707Z,10.90
2018-02-21T18:22:02.027Z,6.50
2018-02-21T18:24:33.084Z,5.90
2018-02-21T18:27:00.952Z,7.37
2018-02-21T18:29:42.760Z,9.83
2018-02-21T18:32:29.188Z,9.23
2018-02-21T18:34:57.109Z,7.67
2018-02-21T18:37:25.109Z,9.13
2018-02-21T18:39:55.611Z,16.20
2018-02-21T18:42:23.493Z,10.57
2018-02-21T18:44:53.250Z,10.87
2018-02-21T18:47:21.047Z,13.93
2018-02-21T18:49:55.921Z,8.27
2018-02-21T18:52:24.550Z,10.97
2018-02-21T18:54:53.307Z,7.47
2018-02-21T18:57:21.867Z,10.27
2018-02-21T18:59:49.838Z,12.60
2018-02-21T19:02:22.581Z,9.90
2018-02-21T19:04:56.242Z,8.80
2018-02-21T19:07:24.813Z,7.17
2018-02-21T19:09:54.534Z,8.43
2018-02-21T19:12:22.404Z,8.23
2018-02-21T19:14:50.254Z,7.53
2018-02-21T19:17:18.071Z,6.40
2018-02-21T19:19:45.885Z,7.43
2018-02-21T19:22:14.713Z,7.80
2018-02-21T19:24:42.981Z,9.00
2018-02-21T19:27:10.750Z,8.03
2018-02-21T19:29:39.844Z,9.60
2018-02-21T19:32:09.827Z,6.93
2018-02-21T19:34:37.594Z,11.60
2018-02-21T19:37:05.328Z,7.40
2018-02-21T19:39:33.095Z,9.90
2018-02-21T19:42:00.869Z,7.80
2018-02-21T19:44:28.659Z,6.80
2018-02-21T19:46:56.491Z,10.00
2018-02-21T19:49:24.283Z,6.90
2018-02-21T19:51:52.076Z,14.30
2018-02-21T19:54:19.839Z,6.53
2018-02-21T19:56:48.444Z,8.57
2018-02-21T19:59:16.203Z,6.60
2018-02-21T20:01:43.963Z,8.10
2018-02-21T20:04:11.732Z,7.73
2018-02-21T20:06:40.354Z,6.80
2018-02-21T20:09:08.983Z,7.90
2018-02-21T20:11:36.734Z,6.53
2018-02-21T20:14:04.666Z,6.07
2018-02-21T20:16:34.536Z,7.50
2018-02-21T20:19:02.301Z,11.40
2018-02-21T20:21:30.162Z,8.03
2018-02-21T20:23:59.438Z,9.97
2018-02-21T20:26:27.174Z,13.20
2018-02-21T20:28:55.022Z,9.77
2018-02-21T20:31:22.806Z,9.93
2018-02-21T20:33:50.582Z,8.67
2018-02-21T20:36:19.082Z,7.90
2018-02-21T20:38:46.959Z,8.90
2018-02-21T20:41:14.792Z,10.17
2018-02-21T20:43:42.597Z,11.87
2018-02-21T20:46:10.404Z,8.87
2018-02-21T20:48:38.135Z,10.00
2018-02-21T20:51:05.948Z,11.27
2018-02-21T20:53:33.671Z,12.50
2018-02-21T20:56:01.548Z,9.83
2018-02-21T20:58:29.332Z,11.83
2018-02-21T21:00:57.141Z,14.40
2018-02-21T21:03:24.906Z,10.50
2018-02-21T21:05:52.812Z,12.40
2018-02-21T21:08:20.648Z,13.83
2018-02-21T21:10:48.452Z,10.73
2018-02-21T21:13:16.179Z,12.03
2018-02-21T21:15:45.703Z,11.87
2018-02-21T21:18:13.492Z,9.47
2018-02-21T21:20:41.292Z,10.00
2018-02-21T21:23:09.165Z,19.33
2018-02-21T21:25:36.900Z,13.03
2018-02-21T21:28:04.762Z,12.13
2018-02-21T21:30:35.407Z,13.10
2018-02-21T21:33:03.214Z,11.83
2018-02-21T21:35:31.062Z,13.50
2018-02-21T21:37:58.835Z,11.97
2018-02-21T21:40:26.688Z,10.80
2018-02-21T21:42:54.486Z,11.47
2018-02-21T21:45:22.280Z,12.23
2018-02-21T21:47:51.677Z,12.97
2018-02-21T21:50:19.482Z,12.40
2018-02-21T21:52:47.324Z,12.40
2018-02-21T21:55:15.181Z,16.37
2018-02-21T21:57:43.760Z,15.70
2018-02-21T22:00:11.585Z,15.30
2018-02-21T22:02:39.417Z,11.10
2018-02-21T22:05:07.248Z,11.47
2018-02-21T22:07:35.054Z,11.33
2018-02-21T22:10:02.887Z,14.13
2018-02-21T22:12:30.656Z,10.67
2018-02-21T22:14:58.479Z,13.87
2018-02-21T22:17:26.215Z,12.17
2018-02-21T22:19:54.007Z,13.00
2018-02-21T22:22:21.817Z,12.68
2018-02-21T22:24:49.616Z,11.87
2018-02-21T22:27:18.221Z,14.20
2018-02-21T22:29:46.032Z,10.27
2018-02-21T22:32:13.817Z,14.23
2018-02-21T22:34:41.662Z,13.90
2018-02-21T22:37:09.471Z,10.53
2018-02-21T22:39:37.230Z,11.30
2018-02-21T22:42:05.023Z,12.07
2018-02-21T22:44:32.770Z,9.97
2018-02-21T22:47:00.524Z,13.10
2018-02-21T22:49:28.324Z,10.40
2018-02-21T22:51:56.122Z,12.13
2018-02-21T22:54:24.674Z,11.60
2018-02-21T22:56:52.531Z,14.73
2018-02-21T22:59:20.361Z,11.40
2018-02-21T23:01:48.119Z,13.60
2018-02-21T23:04:15.864Z,13.70
2018-02-21T23:06:43.677Z,13.00
2018-02-21T23:09:13.072Z,10.23
2018-02-21T23:11:41.219Z,13.20
2018-02-21T23:14:09.075Z,12.60
2018-02-21T23:16:36.890Z,12.10
2018-02-21T23:19:04.678Z,13.37
2018-02-21T23:21:32.435Z,13.90
2018-02-21T23:24:01.379Z,13.70
2018-02-21T23:26:29.178Z,12.70
2018-02-21T23:28:57.049Z,12.30
2018-02-21T23:31:24.821Z,14.83
2018-02-21T23:33:52.585Z,12.03
2018-02-21T23:36:20.395Z,17.80
2018-02-21T23:38:48.195Z,15.37
2018-02-21T23:41:15.991Z,14.07
2018-02-21T23:43:43.888Z,13.53
2018-02-21T23:46:11.699Z,13.80
2018-02-21T23:48:39.492Z,11.50
2018-02-21T23:51:07.220Z,14.37
2018-02-21T23:53:35.781Z,14.57
2018-02-21T23:56:03.608Z,13.70
2018-02-21T23:58:31.431Z,16.47
